Time;durP1;ratioP1;P1;durP2;ratioP2;P2;SDS_P1;SDS_P2;PMS_P1;PMS_P2;Temp;Humidity;BMP_temperature;BMP_pressure;BME280_temperature;BME280_humidity;BME280_pressure;Samples;Min_cycle;Max_cycle;Signal;HPM_P1;HPM_P2
2022/07/19 00:01:27;;;;;;;9.75;3.95;;;;;;;;;;5115165;28;20127;-79
2022/07/19 00:03:53;;;;;;;8.00;2.85;;;;;;;;;;5114869;28;20127;-79
2022/07/19 00:06:19;;;;;;;12.90;3.97;;;;;;;;;;5114959;28;20023;-79
2022/07/19 00:08:45;;;;;;;8.63;3.53;;;;;;;;;;5114962;28;20408;-79
2022/07/19 00:11:11;;;;;;;8.75;2.80;;;;;;;;;;5114744;28;20061;-79
2022/07/19 00:13:37;;;;;;;11.30;3.35;;;;;;;;;;5114788;28;20031;-79
2022/07/19 00:16:03;;;;;;;12.52;3.10;;;;;;;;;;5114651;28;20031;-79
2022/07/19 00:18:29;;;;;;;8.55;3.22;;;;;;;;;;5114850;28;20023;-79
2022/07/19 00:20:55;;;;;;;13.25;3.22;;;;;;;;;;5113162;28;20039;-79
2022/07/19 00:23:21;;;;;;;7.13;3.40;;;;;;;;;;5114636;28;20093;-79
2022/07/19 00:25:47;;;;;;;9.30;3.40;;;;;;;;;;5114474;28;20139;-79
2022/07/19 00:28:13;;;;;;;10.40;3.63;;;;;;;;;;5114378;28;20052;-79
2022/07/19 00:30:39;;;;;;;8.30;2.67;;;;;;;;;;5114440;28;20039;-78
2022/07/19 00:33:08;;;;;;;10.90;3.53;;;;;;;;;;5114481;28;20032;-78
2022/07/19 00:35:35;;;;;;;13.10;3.10;;;;;;;;;;5114363;28;20051;-79
2022/07/19 00:38:05;;;;;;;7.07;3.22;;;;;;;;;;5114415;28;20442;-79
2022/07/19 00:40:31;;;;;;;6.88;2.78;;;;;;;;;;5114068;28;20072;-79
2022/07/19 00:42:57;;;;;;;6.60;3.38;;;;;;;;;;5114158;28;20019;-79
2022/07/19 00:45:23;;;;;;;6.43;2.80;;;;;;;;;;5108370;28;20428;-79
2022/07/19 00:47:49;;;;;;;8.57;3.35;;;;;;;;;;5093857;28;20020;-79
2022/07/19 00:50:15;;;;;;;7.65;3.78;;;;;;;;;;5094179;28;20046;-79
2022/07/19 00:52:43;;;;;;;7.18;3.03;;;;;;;;;;5093979;28;20380;-79
2022/07/19 00:55:10;;;;;;;9.43;3.08;;;;;;;;;;5093651;28;20513;-79
2022/07/19 00:57:38;;;;;;;13.27;3.60;;;;;;;;;;5093477;28;20024;-79
2022/07/19 01:00:05;;;;;;;7.55;3.22;;;;;;;;;;5093469;28;20118;-79
2022/07/19 01:02:32;;;;;;;7.20;3.05;;;;;;;;;;5093280;28;20107;-79
2022/07/19 01:04:59;;;;;;;7.40;3.05;;;;;;;;;;5093480;28;20020;-79
2022/07/19 01:07:25;;;;;;;10.85;3.50;;;;;;;;;;5093555;28;20487;-79
2022/07/19 01:09:51;;;;;;;6.30;3.17;;;;;;;;;;5093255;28;20020;-79
2022/07/19 01:12:17;;;;;;;7.72;2.78;;;;;;;;;;5093398;28;20103;-79
2022/07/19 01:14:43;;;;;;;5.32;3.10;;;;;;;;;;5092713;28;20466;-79
2022/07/19 01:17:10;;;;;;;6.55;3.13;;;;;;;;;;5094763;28;20032;-79
2022/07/19 01:19:36;;;;;;;7.20;3.20;;;;;;;;;;5114002;28;20046;-78
2022/07/19 01:22:02;;;;;;;8.55;3.25;;;;;;;;;;5113953;28;20090;-79
2022/07/19 01:24:28;;;;;;;6.45;3.05;;;;;;;;;;5113687;28;20034;-79
2022/07/19 01:26:54;;;;;;;6.55;3.10;;;;;;;;;;5113308;28;20110;-79
2022/07/19 01:29:20;;;;;;;6.55;3.38;;;;;;;;;;5113550;28;20367;-79
2022/07/19 01:31:46;;;;;;;4.55;2.97;;;;;;;;;;5113413;28;20127;-79
2022/07/19 01:34:12;;;;;;;4.75;2.97;;;;;;;;;;5113564;28;20569;-78
2022/07/19 01:36:38;;;;;;;6.13;3.20;;;;;;;;;;5113486;28;20369;-79
2022/07/19 01:39:04;;;;;;;6.03;2.83;;;;;;;;;;5113182;28;20019;-79
2022/07/19 01:41:30;;;;;;;8.25;3.00;;;;;;;;;;5113616;28;20094;-78
2022/07/19 01:43:56;;;;;;;8.75;3.38;;;;;;;;;;5113215;28;20019;-78
2022/07/19 01:46:22;;;;;;;6.28;2.97;;;;;;;;;;5113437;28;20020;-79
2022/07/19 01:48:48;;;;;;;16.05;3.67;;;;;;;;;;5113402;28;20106;-78
2022/07/19 01:51:14;;;;;;;7.47;3.30;;;;;;;;;;5113071;28;20110;-79
2022/07/19 01:53:40;;;;;;;8.02;3.45;;;;;;;;;;5113273;28;20406;-79
2022/07/19 01:56:07;;;;;;;4.15;2.95;;;;;;;;;;5113067;28;20481;-79
2022/07/19 01:58:33;;;;;;;6.97;3.70;;;;;;;;;;5113229;28;20036;-79
2022/07/19 02:00:59;;;;;;;7.15;3.30;;;;;;;;;;5113382;28;20040;-79
2022/07/19 02:03:25;;;;;;;10.48;3.47;;;;;;;;;;5113067;28;20413;-79
2022/07/19 02:05:51;;;;;;;6.22;2.90;;;;;;;;;;5113016;28;20140;-79
2022/07/19 02:08:17;;;;;;;7.45;3.42;;;;;;;;;;5113405;28;20441;-79
2022/07/19 02:10:43;;;;;;;5.97;3.28;;;;;;;;;;5113204;28;20047;-79
2022/07/19 02:13:09;;;;;;;8.07;4.07;;;;;;;;;;5113237;28;20024;-79
2022/07/19 02:15:36;;;;;;;8.88;3.20;;;;;;;;;;5113117;28;20024;-79
2022/07/19 02:18:02;;;;;;;8.32;3.05;;;;;;;;;;5104085;28;20043;-79
2022/07/19 02:20:28;;;;;;;7.53;3.40;;;;;;;;;;5092767;28;20016;-79
2022/07/19 02:22:54;;;;;;;10.07;3.63;;;;;;;;;;5092793;28;20024;-79
2022/07/19 02:25:20;;;;;;;10.52;3.42;;;;;;;;;;5092683;28;20024;-78
2022/07/19 02:27:46;;;;;;;11.27;3.65;;;;;;;;;;5094167;28;20048;-79
2022/07/19 02:30:13;;;;;;;7.43;3.67;;;;;;;;;;5096492;28;20039;-79
2022/07/19 02:32:39;;;;;;;7.72;3.40;;;;;;;;;;5096504;28;20339;-79
2022/07/19 02:35:06;;;;;;;7.90;3.80;;;;;;;;;;5096436;28;20024;-78
2022/07/19 02:37:32;;;;;;;12.07;4.82;;;;;;;;;;5096333;28;20084;-79
2022/07/19 02:39:58;;;;;;;10.93;3.45;;;;;;;;;;5098222;28;20377;-79
2022/07/19 02:42:24;;;;;;;8.38;3.97;;;;;;;;;;5116775;28;20101;-78
2022/07/19 02:44:50;;;;;;;8.77;3.90;;;;;;;;;;5116706;28;20056;-79
2022/07/19 02:47:16;;;;;;;7.57;3.83;;;;;;;;;;5116641;28;20028;-79
2022/07/19 02:49:42;;;;;;;12.35;4.22;;;;;;;;;;5116733;28;20046;-78
2022/07/19 02:52:08;;;;;;;8.95;3.80;;;;;;;;;;5116416;28;20143;-79
2022/07/19 02:54:34;;;;;;;4.80;3.47;;;;;;;;;;5116531;28;20049;-79
2022/07/19 02:57:00;;;;;;;5.50;3.50;;;;;;;;;;5116590;28;20036;-79
2022/07/19 02:59:26;;;;;;;10.00;3.90;;;;;;;;;;5116023;28;20096;-79
2022/07/19 03:01:52;;;;;;;8.77;3.58;;;;;;;;;;5116177;28;20094;-79
2022/07/19 03:04:19;;;;;;;6.85;3.30;;;;;;;;;;5116269;28;20019;-78
2022/07/19 03:06:45;;;;;;;6.38;3.50;;;;;;;;;;5116073;28;20052;-79
2022/07/19 03:09:11;;;;;;;7.65;3.85;;;;;;;;;;5116314;28;20027;-79
2022/07/19 03:11:38;;;;;;;7.78;3.38;;;;;;;;;;5115950;28;20023;-79
2022/07/19 03:14:04;;;;;;;4.72;3.22;;;;;;;;;;5115778;28;20028;-79
2022/07/19 03:16:30;;;;;;;5.57;3.40;;;;;;;;;;5116036;28;20028;-79
2022/07/19 03:18:56;;;;;;;6.00;3.45;;;;;;;;;;5098981;28;20032;-79
2022/07/19 03:21:23;;;;;;;6.32;3.40;;;;;;;;;;5095447;28;20028;-79
2022/07/19 03:23:49;;;;;;;6.20;3.42;;;;;;;;;;5095574;28;20020;-79
2022/07/19 03:26:15;;;;;;;11.95;3.25;;;;;;;;;;5095326;28;20118;-79
2022/07/19 03:28:41;;;;;;;6.15;3.58;;;;;;;;;;5095000;28;20040;-79
2022/07/19 03:31:08;;;;;;;5.15;3.10;;;;;;;;;;5095218;28;20037;-80
2022/07/19 03:33:34;;;;;;;8.80;3.03;;;;;;;;;;5095393;28;20028;-79
2022/07/19 03:36:00;;;;;;;6.90;3.30;;;;;;;;;;5095194;28;20035;-79
2022/07/19 03:38:26;;;;;;;4.97;2.90;;;;;;;;;;5102056;28;20045;-79
2022/07/19 03:40:52;;;;;;;7.07;3.40;;;;;;;;;;5115561;28;20020;-79
2022/07/19 03:43:18;;;;;;;11.77;3.40;;;;;;;;;;5115517;28;20019;-79
2022/07/19 03:45:45;;;;;;;9.68;3.97;;;;;;;;;;5124128;27;20381;-78
2022/07/19 03:48:11;;;;;;;5.70;3.15;;;;;;;;;;5135971;27;20019;-78
2022/07/19 03:50:38;;;;;;;8.60;3.20;;;;;;;;;;5135706;27;20039;-79
2022/07/19 03:53:04;;;;;;;8.63;3.15;;;;;;;;;;5135787;27;20030;-78
2022/07/19 03:55:30;;;;;;;5.50;3.10;;;;;;;;;;5135840;27;20116;-79
2022/07/19 03:57:56;;;;;;;7.80;2.90;;;;;;;;;;5135845;27;20092;-78
2022/07/19 04:00:22;;;;;;;6.03;3.20;;;;;;;;;;5135552;27;20023;-80
2022/07/19 04:02:49;;;;;;;10.60;3.40;;;;;;;;;;5135871;27;20057;-79
2022/07/19 04:05:15;;;;;;;8.18;3.55;;;;;;;;;;5135507;27;20478;-79
2022/07/19 04:07:41;;;;;;;12.05;3.80;;;;;;;;;;5135529;27;20046;-79
2022/07/19 04:10:07;;;;;;;10.00;3.30;;;;;;;;;;5135619;27;20031;-79
2022/07/19 04:12:34;;;;;;;4.32;3.03;;;;;;;;;;5135617;27;20027;-79
2022/07/19 04:15:00;;;;;;;11.52;3.30;;;;;;;;;;5135597;27;20023;-79
2022/07/19 04:17:26;;;;;;;13.07;3.55;;;;;;;;;;5127314;27;20171;-80
2022/07/19 04:19:53;;;;;;;5.93;2.90;;;;;;;;;;5094590;28;20493;-81
2022/07/19 04:22:19;;;;;;;7.28;3.05;;;;;;;;;;5094239;28;20428;-80
2022/07/19 04:24:45;;;;;;;7.45;3.00;;;;;;;;;;5094405;28;20028;-81
2022/07/19 04:27:11;;;;;;;10.18;3.20;;;;;;;;;;5094177;28;20069;-80
2022/07/19 04:29:37;;;;;;;9.27;2.95;;;;;;;;;;5095414;28;20177;-78
2022/07/19 04:32:03;;;;;;;8.80;3.30;;;;;;;;;;5114500;28;20123;-80
2022/07/19 04:34:29;;;;;;;10.15;3.47;;;;;;;;;;5096028;28;20028;-80
2022/07/19 04:36:55;;;;;;;7.25;3.30;;;;;;;;;;5114592;28;20032;-79
2022/07/19 04:39:21;;;;;;;8.57;3.70;;;;;;;;;;5114310;28;20027;-80
2022/07/19 04:41:47;;;;;;;7.43;3.90;;;;;;;;;;5114521;28;20475;-79
2022/07/19 04:44:13;;;;;;;9.15;3.20;;;;;;;;;;5114256;28;20027;-80
2022/07/19 04:46:39;;;;;;;8.07;3.53;;;;;;;;;;5114163;28;20019;-78
2022/07/19 04:49:05;;;;;;;12.45;3.17;;;;;;;;;;5114007;28;20147;-81
2022/07/19 04:51:31;;;;;;;10.40;3.60;;;;;;;;;;5113470;28;20442;-80
2022/07/19 04:53:57;;;;;;;7.70;3.88;;;;;;;;;;5114105;28;20102;-80
2022/07/19 04:56:23;;;;;;;12.00;4.63;;;;;;;;;;5112860;28;20120;-80
2022/07/19 04:58:49;;;;;;;9.77;3.17;;;;;;;;;;5113978;28;20073;-78
2022/07/19 05:01:15;;;;;;;6.38;3.00;;;;;;;;;;5113364;28;20028;-78
2022/07/19 05:03:41;;;;;;;6.90;3.42;;;;;;;;;;5114229;28;20050;-81
2022/07/19 05:06:07;;;;;;;6.90;2.83;;;;;;;;;;5113761;28;20446;-78
2022/07/19 05:08:33;;;;;;;8.40;3.13;;;;;;;;;;5113719;28;20026;-80
2022/07/19 05:10:59;;;;;;;6.53;3.20;;;;;;;;;;5114076;28;20027;-78
2022/07/19 05:13:25;;;;;;;9.43;3.47;;;;;;;;;;5113774;28;20020;-80
2022/07/19 05:15:51;;;;;;;6.82;2.80;;;;;;;;;;5095575;28;20551;-81
2022/07/19 05:18:17;;;;;;;9.68;3.30;;;;;;;;;;5113513;28;20091;-78
2022/07/19 05:20:43;;;;;;;22.02;3.67;;;;;;;;;;5113448;28;20104;-78
2022/07/19 05:23:09;;;;;;;18.05;3.25;;;;;;;;;;5113803;28;20169;-78
2022/07/19 05:25:35;;;;;;;10.10;3.25;;;;;;;;;;5113770;28;20456;-80
2022/07/19 05:28:01;;;;;;;13.95;3.20;;;;;;;;;;5113221;28;20059;-80
2022/07/19 05:30:27;;;;;;;11.05;2.85;;;;;;;;;;5113400;28;20071;-78
2022/07/19 05:32:54;;;;;;;10.73;3.08;;;;;;;;;;5113628;28;20431;-78
2022/07/19 05:35:20;;;;;;;9.38;2.95;;;;;;;;;;5113092;28;20077;-80
2022/07/19 05:37:46;;;;;;;15.23;3.47;;;;;;;;;;5113344;28;20085;-80
2022/07/19 05:40:12;;;;;;;11.55;3.80;;;;;;;;;;5113299;28;20027;-81
2022/07/19 05:42:38;;;;;;;9.40;3.30;;;;;;;;;;5113124;28;20034;-80
2022/07/19 05:45:04;;;;;;;9.60;3.72;;;;;;;;;;5113089;28;20016;-80
2022/07/19 05:47:30;;;;;;;11.10;2.83;;;;;;;;;;5113536;28;20027;-80
2022/07/19 05:49:59;;;;;;;8.02;3.10;;;;;;;;;;5113434;28;20047;-80
2022/07/19 05:52:25;;;;;;;14.48;3.10;;;;;;;;;;5113292;28;20080;-78
2022/07/19 05:54:51;;;;;;;14.15;3.55;;;;;;;;;;5113136;28;20092;-80
2022/07/19 05:57:17;;;;;;;13.00;3.40;;;;;;;;;;5113490;28;20362;-78
2022/07/19 05:59:43;;;;;;;19.92;3.80;;;;;;;;;;5113399;28;20027;-80
2022/07/19 06:02:09;;;;;;;15.75;3.78;;;;;;;;;;5115681;28;20027;-79
2022/07/19 06:04:35;;;;;;;18.67;4.00;;;;;;;;;;5117285;28;20024;-78
2022/07/19 06:07:01;;;;;;;17.63;4.13;;;;;;;;;;5117428;28;20027;-79
2022/07/19 06:09:27;;;;;;;23.23;4.88;;;;;;;;;;5117162;28;20050;-78
2022/07/19 06:11:53;;;;;;;20.70;4.25;;;;;;;;;;5117125;28;20020;-80
2022/07/19 06:14:19;;;;;;;22.15;4.32;;;;;;;;;;5117187;28;20106;-81
2022/07/19 06:16:45;;;;;;;13.15;3.80;;;;;;;;;;5116905;28;20043;-79
2022/07/19 06:19:11;;;;;;;27.63;4.68;;;;;;;;;;5116782;28;20028;-80
2022/07/19 06:21:38;;;;;;;9.93;3.40;;;;;;;;;;5117159;28;20069;-78
2022/07/19 06:24:04;;;;;;;19.80;4.00;;;;;;;;;;5116861;28;20035;-79
2022/07/19 06:26:30;;;;;;;13.50;3.15;;;;;;;;;;5116875;28;20118;-80
2022/07/19 06:28:56;;;;;;;9.18;3.53;;;;;;;;;;5116480;28;20505;-78
2022/07/19 06:31:22;;;;;;;9.43;2.92;;;;;;;;;;5115380;28;20023;-78
2022/07/19 06:33:49;;;;;;;6.60;2.92;;;;;;;;;;5116747;28;20024;-80
2022/07/19 06:36:16;;;;;;;10.75;3.30;;;;;;;;;;5116670;28;20413;-80
2022/07/19 06:38:42;;;;;;;7.43;3.03;;;;;;;;;;5116433;28;20028;-80
2022/07/19 06:41:09;;;;;;;10.05;3.03;;;;;;;;;;5116596;28;20076;-80
2022/07/19 06:43:35;;;;;;;8.18;2.88;;;;;;;;;;5116518;28;20043;-80
2022/07/19 06:46:01;;;;;;;7.95;2.80;;;;;;;;;;5116388;28;20081;-80
2022/07/19 06:48:27;;;;;;;7.10;2.50;;;;;;;;;;5116565;28;20565;-83
2022/07/19 06:50:53;;;;;;;7.13;2.47;;;;;;;;;;5117091;28;20023;-83
2022/07/19 06:53:19;;;;;;;8.18;2.58;;;;;;;;;;5116953;28;20027;-83
2022/07/19 06:55:45;;;;;;;8.93;2.50;;;;;;;;;;5116520;28;20024;-83
2022/07/19 06:58:12;;;;;;;9.40;2.95;;;;;;;;;;5116537;28;20028;-83
2022/07/19 07:00:38;;;;;;;8.10;2.83;;;;;;;;;;5116280;28;20419;-84
2022/07/19 07:03:04;;;;;;;8.75;2.53;;;;;;;;;;5116557;28;20020;-83
2022/07/19 07:05:33;;;;;;;6.70;2.78;;;;;;;;;;5116314;28;20031;-83
2022/07/19 07:07:59;;;;;;;8.60;2.58;;;;;;;;;;5097964;28;20012;-83
2022/07/19 07:10:25;;;;;;;9.90;2.55;;;;;;;;;;5097990;28;20035;-83
2022/07/19 07:12:51;;;;;;;8.68;2.83;;;;;;;;;;5115661;28;20035;-83
2022/07/19 07:15:18;;;;;;;12.23;2.80;;;;;;;;;;5116294;28;20496;-83
2022/07/19 07:17:44;;;;;;;10.18;2.25;;;;;;;;;;5110216;28;20024;-83
2022/07/19 07:20:11;;;;;;;8.63;2.78;;;;;;;;;;5094792;28;20434;-83
2022/07/19 07:22:37;;;;;;;8.77;2.55;;;;;;;;;;5095109;28;20033;-82
2022/07/19 07:25:04;;;;;;;13.02;2.58;;;;;;;;;;5099956;28;20018;-83
2022/07/19 07:27:30;;;;;;;7.50;2.58;;;;;;;;;;5116867;28;20043;-83
2022/07/19 07:29:56;;;;;;;8.18;3.03;;;;;;;;;;5117070;28;20135;-83
2022/07/19 07:32:22;;;;;;;8.07;2.30;;;;;;;;;;5114074;28;20023;-83
2022/07/19 07:34:49;;;;;;;7.65;2.60;;;;;;;;;;5117365;28;20022;-82
2022/07/19 07:37:15;;;;;;;6.65;2.45;;;;;;;;;;5116410;28;20027;-82
2022/07/19 07:39:41;;;;;;;6.50;2.70;;;;;;;;;;5117542;28;20028;-82
2022/07/19 07:42:10;;;;;;;7.72;2.83;;;;;;;;;;5117274;28;20030;-83
2022/07/19 07:44:36;;;;;;;4.68;2.50;;;;;;;;;;5101241;28;20026;-84
2022/07/19 07:47:02;;;;;;;16.35;2.33;;;;;;;;;;5117728;28;20024;-82
2022/07/19 07:49:30;;;;;;;6.18;2.30;;;;;;;;;;5117375;28;20028;-81
2022/07/19 07:51:56;;;;;;;4.50;2.35;;;;;;;;;;5117801;28;20028;-82
2022/07/19 07:54:22;;;;;;;8.68;2.70;;;;;;;;;;5118497;28;20042;-82
2022/07/19 07:56:48;;;;;;;14.30;2.80;;;;;;;;;;5117924;28;20039;-82
2022/07/19 07:59:14;;;;;;;10.82;2.65;;;;;;;;;;5117622;28;20020;-82
2022/07/19 08:01:42;;;;;;;23.27;2.88;;;;;;;;;;5118144;28;20131;-82
2022/07/19 08:04:09;;;;;;;10.80;2.42;;;;;;;;;;5117180;28;20053;-82
2022/07/19 08:06:35;;;;;;;9.63;2.67;;;;;;;;;;5117375;28;20106;-82
2022/07/19 08:09:01;;;;;;;10.15;2.80;;;;;;;;;;5118335;28;20023;-81
2022/07/19 08:11:27;;;;;;;10.43;2.95;;;;;;;;;;5119232;28;20020;-82
2022/07/19 08:13:53;;;;;;;11.65;2.55;;;;;;;;;;5120522;28;20031;-82
2022/07/19 08:16:19;;;;;;;7.72;1.98;;;;;;;;;;5118159;28;20088;-81
2022/07/19 08:18:45;;;;;;;8.82;2.70;;;;;;;;;;5114119;28;20465;-81
2022/07/19 08:21:11;;;;;;;5.45;2.00;;;;;;;;;;5119249;28;20051;-81
2022/07/19 08:23:39;;;;;;;6.60;2.10;;;;;;;;;;5118294;28;20137;-81
2022/07/19 08:26:06;;;;;;;9.25;1.77;;;;;;;;;;5117014;28;20035;-82
2022/07/19 08:28:32;;;;;;;8.68;1.85;;;;;;;;;;5115779;28;20040;-81
2022/07/19 08:30:58;;;;;;;9.30;2.13;;;;;;;;;;5096505;28;20024;-81
2022/07/19 08:33:24;;;;;;;7.20;2.22;;;;;;;;;;5115033;28;20020;-80
2022/07/19 08:35:50;;;;;;;6.35;1.77;;;;;;;;;;5115085;28;20454;-77
2022/07/19 08:38:16;;;;;;;8.43;1.83;;;;;;;;;;5114430;28;20115;-77
2022/07/19 08:40:43;;;;;;;8.00;2.00;;;;;;;;;;5113443;28;20016;-77
2022/07/19 08:43:10;;;;;;;9.32;1.80;;;;;;;;;;5113790;28;20094;-77
2022/07/19 08:45:37;;;;;;;8.85;1.80;;;;;;;;;;5113941;28;20098;-78
2022/07/19 08:48:04;;;;;;;7.50;1.80;;;;;;;;;;5113983;28;20522;-76
2022/07/19 08:50:30;;;;;;;3.30;1.63;;;;;;;;;;5114045;28;20430;-77
2022/07/19 08:52:59;;;;;;;5.70;2.03;;;;;;;;;;5114146;28;20036;-76
2022/07/19 08:55:25;;;;;;;5.18;1.80;;;;;;;;;;5113059;28;20033;-73
2022/07/19 08:57:57;;;;;;;6.40;1.75;;;;;;;;;;5113038;28;20031;-73
2022/07/19 09:00:24;;;;;;;7.50;2.17;;;;;;;;;;5112771;28;20099;-73
2022/07/19 09:02:58;;;;;;;6.88;1.60;;;;;;;;;;5112804;28;20081;-73
2022/07/19 09:05:24;;;;;;;12.32;1.77;;;;;;;;;;5092405;28;20032;-76
2022/07/19 09:08:01;;;;;;;7.07;1.77;;;;;;;;;;5111179;28;20015;-76
2022/07/19 09:10:27;;;;;;;8.02;1.85;;;;;;;;;;5111375;28;20099;-76
2022/07/19 09:13:07;;;;;;;7.78;1.80;;;;;;;;;;5112681;28;20023;-77
2022/07/19 09:15:42;;;;;;;13.93;2.30;;;;;;;;;;5112468;28;20011;-75
2022/07/19 09:18:15;;;;;;;7.40;1.90;;;;;;;;;;5110790;28;20076;-76
2022/07/19 09:20:42;;;;;;;5.28;1.70;;;;;;;;;;5110170;28;20442;-75
2022/07/19 09:23:08;;;;;;;8.27;1.55;;;;;;;;;;5112254;28;20485;-76
2022/07/19 09:25:39;;;;;;;4.07;2.00;;;;;;;;;;5112443;28;20023;-76
2022/07/19 09:28:05;;;;;;;7.57;2.08;;;;;;;;;;5112170;28;20327;-76
2022/07/19 09:30:36;;;;;;;6.30;1.73;;;;;;;;;;5111748;28;20084;-76
2022/07/19 09:33:02;;;;;;;;;;;;;;;;;;5112702;28;20050;-76
2022/07/19 09:35:40;;;;;;;4.45;1.90;;;;;;;;;;5110871;28;19904;-76
2022/07/19 09:38:22;;;;;;;6.97;2.03;;;;;;;;;;5112187;28;20046;-76
2022/07/19 09:40:49;;;;;;;7.57;1.85;;;;;;;;;;5120619;27;20093;-75
2022/07/19 09:43:16;;;;;;;8.52;1.90;;;;;;;;;;5108968;28;20088;-77
2022/07/19 09:45:42;;;;;;;4.88;1.60;;;;;;;;;;5112547;28;20016;-76
2022/07/19 09:48:08;;;;;;;5.47;1.83;;;;;;;;;;5112958;28;20081;-76
2022/07/19 09:50:34;;;;;;;3.35;1.50;;;;;;;;;;5113498;28;20035;-76
2022/07/19 09:53:04;;;;;;;7.07;1.75;;;;;;;;;;5113719;28;20039;-80
2022/07/19 09:55:31;;;;;;;5.75;2.20;;;;;;;;;;5112364;28;20553;-75
2022/07/19 09:57:57;;;;;;;7.95;2.20;;;;;;;;;;5113370;28;20049;-75
2022/07/19 10:00:24;;;;;;;6.93;1.63;;;;;;;;;;5112495;28;20026;-75
2022/07/19 10:02:55;;;;;;;5.97;1.70;;;;;;;;;;5113153;28;20022;-75
2022/07/19 10:05:22;;;;;;;7.68;1.90;;;;;;;;;;5113035;28;20118;-75
2022/07/19 10:07:48;;;;;;;5.47;2.10;;;;;;;;;;5112453;28;20088;-78
2022/07/19 10:10:17;;;;;;;11.57;1.83;;;;;;;;;;5112074;28;20019;-79
2022/07/19 10:12:44;;;;;;;9.13;2.17;;;;;;;;;;5108811;28;20018;-81
2022/07/19 10:15:11;;;;;;;6.90;1.80;;;;;;;;;;5112699;28;20024;-80
2022/07/19 10:17:39;;;;;;;6.97;2.28;;;;;;;;;;5093826;28;20023;-80
2022/07/19 10:20:06;;;;;;;6.13;2.10;;;;;;;;;;5112643;28;20039;-80
2022/07/19 10:22:33;;;;;;;10.70;2.33;;;;;;;;;;5111683;28;20069;-80
2022/07/19 10:25:00;;;;;;;6.55;2.15;;;;;;;;;;5093742;28;20030;-79
2022/07/19 10:27:26;;;;;;;6.75;2.53;;;;;;;;;;5112069;28;20027;-80
2022/07/19 10:29:52;;;;;;;4.07;1.80;;;;;;;;;;5111965;28;20047;-80
2022/07/19 10:32:18;;;;;;;5.45;2.05;;;;;;;;;;5112095;28;20028;-80
2022/07/19 10:34:51;;;;;;;7.20;1.80;;;;;;;;;;5113356;28;20084;-78
2022/07/19 10:37:37;;;;;;;9.40;2.00;;;;;;;;;;5110696;28;20023;-79
2022/07/19 10:40:03;;;;;;;4.13;1.85;;;;;;;;;;5112784;28;20100;-80
2022/07/19 10:42:29;;;;;;;8.63;2.10;;;;;;;;;;5112575;28;20016;-82
2022/07/19 10:44:55;;;;;;;7.15;1.90;;;;;;;;;;5112424;28;20016;-81
2022/07/19 10:47:42;;;;;;;5.53;1.85;;;;;;;;;;5111997;28;20065;-80
2022/07/19 10:50:17;;;;;;;7.80;1.70;;;;;;;;;;5092639;28;20488;-80
2022/07/19 10:52:44;;;;;;;15.52;2.45;;;;;;;;;;5107400;28;20458;-80
2022/07/19 10:55:20;;;;;;;8.35;2.00;;;;;;;;;;5114600;28;20020;-80
2022/07/19 10:58:05;;;;;;;11.02;1.77;;;;;;;;;;5096998;28;20104;-80
2022/07/19 11:00:32;;;;;;;9.32;1.88;;;;;;;;;;5115436;28;20031;-80
2022/07/19 11:03:34;;;;;;;7.28;1.95;;;;;;;;;;5115263;28;20016;-81
2022/07/19 11:06:01;;;;;;;5.90;1.58;;;;;;;;;;5048663;28;20098;-75
2022/07/19 11:08:39;;;;;;;9.35;1.50;;;;;;;;;;5037305;28;20037;-81
2022/07/19 11:11:18;;;;;;;6.32;1.40;;;;;;;;;;5031692;28;20033;-81
2022/07/19 11:13:54;;;;;;;5.53;1.67;;;;;;;;;;5030639;28;20037;-77
2022/07/19 11:16:20;;;;;;;6.63;1.67;;;;;;;;;;5026798;28;20026;-78
2022/07/19 11:18:46;;;;;;;11.23;1.85;;;;;;;;;;5030717;28;20407;-79
2022/07/19 11:21:14;;;;;;;7.30;2.00;;;;;;;;;;5030972;28;20320;-79
2022/07/19 11:23:40;;;;;;;4.18;1.67;;;;;;;;;;5031879;28;20025;-79
2022/07/19 11:26:11;;;;;;;3.53;1.70;;;;;;;;;;5013251;28;20108;-78
2022/07/19 11:28:38;;;;;;;4.95;1.77;;;;;;;;;;5027928;28;20052;-78
2022/07/19 11:31:23;;;;;;;4.07;1.67;;;;;;;;;;5030881;28;20041;-78
2022/07/19 11:33:52;;;;;;;4.40;1.67;;;;;;;;;;5031682;28;20030;-78
2022/07/19 11:36:19;;;;;;;13.20;1.80;;;;;;;;;;5031950;28;20041;-78
2022/07/19 11:38:47;;;;;;;8.93;1.60;;;;;;;;;;5031121;28;20034;-78
2022/07/19 11:41:21;;;;;;;10.88;1.83;;;;;;;;;;5066530;28;20091;-78
2022/07/19 11:43:54;;;;;;;4.95;1.48;;;;;;;;;;5071519;28;20043;-78
2022/07/19 11:46:25;;;;;;;9.40;2.00;;;;;;;;;;5062973;28;20050;-78
2022/07/19 11:48:55;;;;;;;12.50;1.60;;;;;;;;;;5069803;28;20347;-78
2022/07/19 11:51:21;;;;;;;4.75;1.60;;;;;;;;;;5066749;28;20659;-78
2022/07/19 11:53:49;;;;;;;4.22;2.10;;;;;;;;;;5060049;28;20025;-78
2022/07/19 11:56:20;;;;;;;15.95;2.25;;;;;;;;;;5071705;28;20125;-77
2022/07/19 11:58:46;;;;;;;7.53;1.70;;;;;;;;;;5073806;28;20483;-78
2022/07/19 12:01:12;;;;;;;6.38;1.80;;;;;;;;;;5066037;28;20024;-79
2022/07/19 12:03:38;;;;;;;5.15;1.77;;;;;;;;;;5066755;28;20020;-79
2022/07/19 12:06:05;;;;;;;8.90;1.73;;;;;;;;;;5074611;28;20119;-78
2022/07/19 12:08:36;;;;;;;6.82;1.58;;;;;;;;;;5074001;28;20017;-79
2022/07/19 12:11:02;;;;;;;6.90;2.00;;;;;;;;;;5071981;28;20025;-79
2022/07/19 12:13:32;;;;;;;11.77;2.00;;;;;;;;;;5069716;28;20032;-78
2022/07/19 12:16:03;;;;;;;11.80;1.90;;;;;;;;;;5071805;28;20025;-79
2022/07/19 12:18:44;;;;;;;6.50;1.90;;;;;;;;;;5066739;28;20020;-79
2022/07/19 12:21:16;;;;;;;7.20;1.80;;;;;;;;;;5073518;28;20146;-79
2022/07/19 12:23:42;;;;;;;7.05;1.88;;;;;;;;;;5071416;28;20479;-78
2022/07/19 12:26:09;;;;;;;9.30;2.00;;;;;;;;;;5061928;28;20031;-78
2022/07/19 12:28:35;;;;;;;5.95;1.80;;;;;;;;;;5087668;28;20062;-79
2022/07/19 12:31:05;;;;;;;7.57;1.67;;;;;;;;;;5104071;28;20027;-79
2022/07/19 12:33:32;;;;;;;6.30;1.60;;;;;;;;;;5100434;28;20103;-79
2022/07/19 12:35:58;;;;;;;4.88;1.60;;;;;;;;;;5100199;28;20350;-79
2022/07/19 12:38:28;;;;;;;14.57;1.67;;;;;;;;;;5111326;28;20047;-79
2022/07/19 12:41:04;;;;;;;5.60;1.90;;;;;;;;;;5109044;28;20020;-79
2022/07/19 12:43:30;;;;;;;10.20;1.63;;;;;;;;;;5099529;28;20092;-79
2022/07/19 12:46:01;;;;;;;6.20;1.77;;;;;;;;;;5105351;28;20173;-79
2022/07/19 12:48:28;;;;;;;4.38;1.90;;;;;;;;;;5101463;28;20028;-79
2022/07/19 12:50:54;;;;;;;7.85;1.75;;;;;;;;;;5105732;28;20027;-79
2022/07/19 12:53:20;;;;;;;1.90;1.30;;;;;;;;;;5101149;28;20580;-79
2022/07/19 12:55:46;;;;;;;4.63;1.50;;;;;;;;;;5103321;28;20027;-79
2022/07/19 12:58:14;;;;;;;4.97;1.50;;;;;;;;;;5102184;28;20056;-79
2022/07/19 13:00:44;;;;;;;4.68;1.52;;;;;;;;;;5107854;28;20493;-79
2022/07/19 13:03:10;;;;;;;3.80;1.50;;;;;;;;;;5108221;28;20111;-79
2022/07/19 13:05:36;;;;;;;6.95;1.58;;;;;;;;;;5107915;28;20053;-79
2022/07/19 13:08:03;;;;;;;7.88;1.38;;;;;;;;;;5113595;28;20068;-75
2022/07/19 13:10:30;;;;;;;2.28;1.40;;;;;;;;;;5112670;28;20031;-79
2022/07/19 13:12:56;;;;;;;2.20;1.40;;;;;;;;;;5112544;28;20477;-79
2022/07/19 13:15:22;;;;;;;9.70;1.50;;;;;;;;;;5104768;28;20023;-79
2022/07/19 13:17:48;;;;;;;3.00;1.63;;;;;;;;;;5111760;28;20090;-79
2022/07/19 13:20:14;;;;;;;6.95;1.40;;;;;;;;;;5112865;27;20032;-79
2022/07/19 13:22:40;;;;;;;3.97;1.20;;;;;;;;;;5113530;28;20027;-79
2022/07/19 13:25:07;;;;;;;5.90;1.17;;;;;;;;;;5112191;28;20059;-79
2022/07/19 13:27:33;;;;;;;2.80;1.40;;;;;;;;;;5113057;28;20049;-78
2022/07/19 13:30:00;;;;;;;7.15;1.60;;;;;;;;;;5109666;28;20043;-79
2022/07/19 13:32:27;;;;;;;5.93;1.70;;;;;;;;;;5110308;28;20454;-80
2022/07/19 13:34:53;;;;;;;9.82;1.52;;;;;;;;;;5111595;28;20026;-79
2022/07/19 13:37:19;;;;;;;3.13;1.30;;;;;;;;;;5112458;28;20102;-79
2022/07/19 13:39:45;;;;;;;4.15;1.30;;;;;;;;;;5111963;28;20035;-79
2022/07/19 13:42:11;;;;;;;3.10;1.30;;;;;;;;;;5112598;28;20016;-79
2022/07/19 13:44:37;;;;;;;6.55;1.70;;;;;;;;;;5111611;28;20053;-79
2022/07/19 13:47:03;;;;;;;5.00;1.80;;;;;;;;;;5112112;28;20068;-79
2022/07/19 13:49:29;;;;;;;5.05;1.63;;;;;;;;;;5112646;28;20032;-79
2022/07/19 13:51:55;;;;;;;9.90;1.60;;;;;;;;;;5112041;28;20027;-79
2022/07/19 13:54:22;;;;;;;4.55;1.60;;;;;;;;;;5112183;28;20027;-79
2022/07/19 13:56:48;;;;;;;9.38;1.67;;;;;;;;;;5111980;28;20023;-79
2022/07/19 13:59:14;;;;;;;9.93;1.67;;;;;;;;;;5112407;28;20111;-79
2022/07/19 14:01:40;;;;;;;8.00;1.63;;;;;;;;;;5111759;28;20170;-79
2022/07/19 14:04:06;;;;;;;9.52;1.70;;;;;;;;;;5112249;28;20132;-79
2022/07/19 14:06:32;;;;;;;10.77;2.15;;;;;;;;;;5111972;28;20446;-79
2022/07/19 14:08:58;;;;;;;5.43;1.63;;;;;;;;;;5112320;28;20015;-79
2022/07/19 14:11:24;;;;;;;5.18;1.60;;;;;;;;;;5112452;28;20027;-79
2022/07/19 14:13:51;;;;;;;7.03;1.95;;;;;;;;;;5112140;28;20023;-80
2022/07/19 14:16:17;;;;;;;10.68;1.75;;;;;;;;;;5112216;28;20041;-80
2022/07/19 14:18:43;;;;;;;11.30;2.10;;;;;;;;;;5112165;28;20024;-80
2022/07/19 14:21:09;;;;;;;3.50;1.50;;;;;;;;;;5111999;28;20020;-79
2022/07/19 14:23:36;;;;;;;8.43;1.63;;;;;;;;;;5115500;28;20421;-78
2022/07/19 14:26:02;;;;;;;6.30;1.40;;;;;;;;;;5115992;28;20023;-77
2022/07/19 14:28:28;;;;;;;9.82;1.85;;;;;;;;;;5116037;28;20036;-78
2022/07/19 14:30:54;;;;;;;8.65;1.75;;;;;;;;;;5106716;28;20031;-78
2022/07/19 14:33:20;;;;;;;8.65;1.85;;;;;;;;;;5116072;28;20074;-78
2022/07/19 14:35:46;;;;;;;12.90;1.88;;;;;;;;;;5115733;28;20031;-78
2022/07/19 14:38:12;;;;;;;4.32;1.73;;;;;;;;;;5115665;28;20023;-78
2022/07/19 14:40:38;;;;;;;7.65;1.60;;;;;;;;;;5110612;28;20020;-78